createdAt,value
2022-12-27T00:00:50.721Z,61.70
2022-12-27T00:03:55.264Z,63.07
2022-12-27T00:06:58.201Z,63.24
2022-12-27T00:10:02.412Z,64.01
2022-12-27T00:13:05.176Z,63.75
2022-12-27T00:16:12.723Z,64.50
2022-12-27T00:19:17.251Z,64.00
2022-12-27T00:22:20.267Z,64.16
2022-12-27T00:25:24.258Z,64.10
2022-12-27T00:28:27.046Z,64.68
2022-12-27T00:31:34.042Z,64.88
2022-12-27T00:34:38.298Z,65.10
2022-12-27T00:37:41.044Z,64.30
2022-12-27T00:40:45.385Z,65.49
2022-12-27T00:43:48.789Z,65.79
2022-12-27T00:46:54.141Z,65.59
2022-12-27T00:49:56.845Z,65.99
2022-12-27T00:53:00.968Z,66.21
2022-12-27T00:56:09.180Z,66.27
2022-12-27T00:59:12.688Z,66.37
2022-12-27T01:02:18.091Z,66.47
2022-12-27T01:05:22.262Z,66.20
2022-12-27T01:08:26.251Z,66.96
2022-12-27T01:11:29.824Z,66.62
2022-12-27T01:14:32.577Z,66.98
2022-12-27T01:17:38.019Z,66.86
2022-12-27T01:20:41.016Z,67.32
2022-12-27T01:23:45.707Z,67.67
2022-12-27T01:26:48.680Z,67.90
2022-12-27T01:29:54.240Z,67.92
2022-12-27T01:32:59.844Z,67.43
2022-12-27T01:36:10.740Z,67.17
2022-12-27T01:39:17.368Z,67.93
2022-12-27T01:42:39.767Z,67.96
2022-12-27T01:45:42.772Z,68.27
2022-12-27T01:48:48.957Z,68.28
2022-12-27T01:51:51.929Z,68.00
2022-12-27T01:54:59.191Z,68.77
2022-12-27T01:58:06.136Z,68.13
2022-12-27T02:01:14.792Z,68.66
2022-12-27T02:04:23.140Z,69.92
2022-12-27T02:07:32.579Z,69.35
2022-12-27T02:10:37.528Z,69.76
2022-12-27T02:13:44.483Z,69.61
2022-12-27T02:16:48.760Z,69.57
2022-12-27T02:20:01.173Z,70.17
2022-12-27T02:23:58.947Z,70.55
2022-12-27T02:27:07.103Z,69.46
2022-12-27T02:30:14.605Z,70.97
2022-12-27T02:33:24.740Z,70.29
2022-12-27T02:36:32.529Z,70.39
2022-12-27T02:39:40.282Z,70.11
2022-12-27T02:43:04.580Z,70.37
2022-12-27T02:46:33.291Z,70.23
2022-12-27T02:49:57.744Z,70.61
2022-12-27T02:53:08.968Z,70.71
2022-12-27T02:56:46.198Z,70.86
2022-12-27T03:00:24.637Z,70.59
2022-12-27T03:03:44.729Z,70.24
2022-12-27T03:07:00.173Z,70.76
2022-12-27T03:10:34.259Z,70.60
2022-12-27T03:14:04.245Z,70.96
2022-12-27T03:17:16.165Z,70.82
2022-12-27T03:20:40.406Z,71.32
2022-12-27T03:24:04.625Z,71.21
2022-12-27T03:27:18.247Z,70.24
2022-12-27T03:30:39.417Z,70.34
2022-12-27T03:33:44.998Z,70.74
2022-12-27T03:37:08.852Z,71.04
2022-12-27T03:40:19.506Z,70.99
2022-12-27T03:43:21.516Z,71.51
2022-12-27T03:46:35.729Z,71.96
2022-12-27T03:49:43.311Z,70.65
2022-12-27T03:52:53.777Z,71.30
2022-12-27T03:55:58.178Z,71.71
2022-12-27T03:59:04.071Z,70.75
2022-12-27T04:02:09.196Z,71.27
2022-12-27T04:05:14.111Z,72.03
2022-12-27T04:08:35.918Z,71.31
2022-12-27T04:11:57.282Z,71.44
2022-12-27T04:15:17.605Z,72.41
2022-12-27T04:18:38.086Z,71.76
2022-12-27T04:21:59.447Z,71.44
2022-12-27T04:25:21.132Z,71.21
2022-12-27T04:28:42.576Z,71.39
2022-12-27T04:32:02.646Z,71.51
2022-12-27T04:35:07.404Z,72.25
2022-12-27T04:38:10.234Z,71.07
2022-12-27T04:41:32.544Z,70.60
2022-12-27T04:44:59.191Z,70.63
2022-12-27T04:48:19.592Z,71.27
2022-12-27T04:51:40.824Z,70.91
2022-12-27T04:54:59.766Z,70.87
2022-12-27T04:58:03.985Z,70.60
2022-12-27T05:01:25.705Z,70.79
2022-12-27T05:04:30.008Z,70.99
2022-12-27T05:07:51.301Z,70.52
2022-12-27T05:11:11.555Z,71.11
2022-12-27T05:14:17.869Z,70.56
2022-12-27T05:17:20.843Z,70.69
2022-12-27T05:20:23.707Z,70.34
2022-12-27T05:23:43.962Z,70.05
2022-12-27T05:26:49.855Z,69.87
2022-12-27T05:29:54.970Z,70.09
2022-12-27T05:33:01.653Z,69.57
2022-12-27T05:36:04.675Z,70.06
2022-12-27T05:39:08.494Z,70.02
2022-12-27T05:42:11.381Z,70.56
2022-12-27T05:45:16.732Z,69.19
2022-12-27T05:48:19.714Z,69.30
2022-12-27T05:51:23.894Z,68.42
2022-12-27T05:54:27.818Z,69.26
2022-12-27T05:57:31.038Z,68.61
2022-12-27T06:00:36.666Z,69.22
2022-12-27T06:03:39.905Z,69.46
2022-12-27T06:06:43.070Z,69.79
2022-12-27T06:09:45.916Z,69.55
2022-12-27T06:12:48.736Z,70.13
2022-12-27T06:15:53.895Z,69.28
2022-12-27T06:18:57.996Z,69.69
2022-12-27T06:22:00.937Z,69.15
2022-12-27T06:25:03.891Z,69.41
2022-12-27T06:28:06.828Z,69.09
2022-12-27T06:31:12.514Z,70.01
2022-12-27T06:34:15.634Z,69.29
2022-12-27T06:37:19.774Z,69.42
2022-12-27T06:40:23.866Z,69.03
2022-12-27T06:43:27.076Z,69.52
2022-12-27T06:46:31.625Z,69.41
2022-12-27T06:49:34.466Z,69.17
2022-12-27T06:52:38.565Z,68.82
2022-12-27T06:55:41.394Z,69.40
2022-12-27T06:58:44.612Z,69.02
2022-12-27T07:01:50.083Z,68.10
2022-12-27T07:04:53.393Z,69.38
2022-12-27T07:07:57.202Z,69.65
2022-12-27T07:11:02.865Z,68.46
2022-12-27T07:14:09.565Z,69.06
2022-12-27T07:17:14.770Z,68.73
2022-12-27T07:20:18.712Z,69.28
2022-12-27T07:23:21.448Z,68.42
2022-12-27T07:26:27.751Z,68.18
2022-12-27T07:29:30.734Z,67.65
2022-12-27T07:32:35.848Z,67.70
2022-12-27T07:35:44.963Z,68.32
2022-12-27T07:38:48.706Z,68.55
2022-12-27T07:41:51.543Z,66.87
2022-12-27T07:44:54.374Z,67.86
2022-12-27T07:47:59.471Z,66.42
2022-12-27T07:51:02.796Z,67.48
2022-12-27T07:54:06.979Z,66.67
2022-12-27T07:57:10.636Z,66.34
2022-12-27T08:00:14.540Z,66.75
2022-12-27T08:03:20.416Z,66.84
2022-12-27T08:06:27.041Z,67.41
2022-12-27T08:09:32.485Z,67.86
2022-12-27T08:12:36.143Z,68.84
2022-12-27T08:15:40.955Z,69.04
2022-12-27T08:18:46.113Z,69.48
2022-12-27T08:21:48.832Z,70.02
2022-12-27T08:24:52.646Z,69.24
2022-12-27T08:28:04.731Z,69.53
2022-12-27T08:31:08.992Z,70.35
2022-12-27T08:34:14.074Z,68.96
2022-12-27T08:37:17.981Z,69.68
2022-12-27T08:40:21.033Z,68.88
2022-12-27T08:43:24.709Z,69.45
2022-12-27T08:46:27.431Z,68.83
2022-12-27T08:49:32.565Z,69.17
2022-12-27T08:52:36.280Z,68.99
2022-12-27T08:55:38.993Z,67.99
2022-12-27T08:58:42.630Z,68.93
2022-12-27T09:01:45.515Z,68.23
2022-12-27T09:04:50.741Z,67.61
2022-12-27T09:07:54.458Z,67.78
2022-12-27T09:10:57.482Z,67.97
2022-12-27T09:14:03.090Z,68.14
2022-12-27T09:17:07.106Z,67.87
2022-12-27T09:20:14.179Z,68.50
2022-12-27T09:23:18.001Z,68.03
2022-12-27T09:26:22.570Z,67.93
2022-12-27T09:29:26.467Z,67.70
2022-12-27T09:32:29.243Z,67.73
2022-12-27T09:35:38.443Z,67.28
2022-12-27T09:38:43.216Z,66.12
2022-12-27T09:45:23.775Z,64.98
2022-12-27T09:48:33.714Z,64.67
2022-12-27T09:51:48.617Z,66.01
2022-12-27T09:55:05.056Z,64.97
2022-12-27T09:58:24.884Z,65.59
2022-12-27T10:01:36.184Z,66.61
2022-12-27T10:05:17.903Z,66.21
2022-12-27T10:08:21.723Z,66.65
2022-12-27T10:11:41.233Z,65.74
2022-12-27T10:15:00.188Z,65.18
2022-12-27T10:18:16.274Z,63.15
2022-12-27T10:21:23.861Z,62.96
2022-12-27T10:24:36.917Z,61.58
2022-12-27T10:27:42.346Z,60.71
2022-12-27T10:30:45.705Z,61.87
2022-12-27T10:37:17.598Z,63.17
2022-12-27T10:40:29.818Z,64.57
2022-12-27T10:43:41.251Z,64.44
2022-12-27T10:46:50.541Z,64.92
2022-12-27T10:50:06.882Z,65.45
2022-12-27T10:53:35.500Z,65.99
2022-12-27T10:56:41.535Z,65.82
2022-12-27T10:59:45.787Z,66.04
2022-12-27T11:02:53.542Z,67.12
2022-12-27T11:06:03.389Z,66.38
2022-12-27T11:09:30.864Z,65.60
2022-12-27T11:12:36.149Z,65.98
2022-12-27T11:15:42.935Z,66.18
2022-12-27T11:18:49.223Z,66.79
2022-12-27T11:21:54.524Z,67.00
2022-12-27T11:25:00.899Z,65.98
2022-12-27T11:28:17.592Z,65.40
2022-12-27T11:34:53.665Z,66.38
2022-12-27T11:37:58.210Z,65.65
2022-12-27T11:41:06.685Z,65.99
2022-12-27T11:44:20.903Z,66.44
2022-12-27T11:51:05.076Z,66.68
2022-12-27T11:54:21.883Z,65.50
2022-12-27T11:57:40.800Z,65.42
2022-12-27T12:00:59.156Z,65.87
2022-12-27T12:04:42.915Z,65.14
2022-12-27T12:08:03.716Z,65.92
2022-12-27T12:11:16.704Z,65.10
2022-12-27T12:14:58.867Z,66.10
2022-12-27T12:18:28.730Z,65.73
2022-12-27T12:21:37.021Z,65.78
2022-12-27T12:25:37.446Z,64.51
2022-12-27T12:28:59.879Z,63.48
2022-12-27T12:32:18.559Z,63.17
2022-12-27T12:35:51.799Z,62.49
2022-12-27T12:39:03.827Z,63.60
2022-12-27T12:42:20.349Z,61.75
2022-12-27T12:45:39.959Z,62.21
2022-12-27T12:49:11.619Z,61.21
2022-12-27T12:52:32.421Z,60.61
2022-12-27T12:55:48.172Z,62.23
2022-12-27T12:59:03.863Z,60.37
2022-12-27T13:02:42.122Z,61.01
2022-12-27T13:05:52.383Z,62.41
2022-12-27T13:09:04.879Z,61.31
2022-12-27T13:12:14.554Z,61.70
2022-12-27T13:15:30.643Z,61.42
2022-12-27T13:18:44.307Z,62.54
2022-12-27T13:21:59.648Z,62.21
2022-12-27T13:25:16.543Z,62.88
2022-12-27T13:28:37.205Z,62.00
2022-12-27T13:31:48.221Z,62.83
2022-12-27T13:35:06.418Z,61.85
2022-12-27T13:38:20.562Z,62.37
2022-12-27T13:41:40.365Z,61.53
2022-12-27T13:44:55.564Z,61.97
2022-12-27T13:48:10.669Z,60.83
2022-12-27T13:51:38.428Z,59.86
2022-12-27T13:55:22.043Z,60.01
2022-12-27T13:59:06.923Z,60.58
2022-12-27T14:02:30.607Z,60.67
2022-12-27T14:06:19.050Z,60.33
2022-12-27T14:09:45.478Z,61.56
2022-12-27T14:13:09.369Z,59.94
2022-12-27T14:16:36.175Z,60.65
2022-12-27T14:20:04.719Z,60.43
2022-12-27T14:23:35.253Z,60.67
2022-12-27T14:26:59.547Z,61.98
2022-12-27T14:30:39.584Z,60.94
2022-12-27T14:34:18.146Z,61.98
2022-12-27T14:37:45.258Z,62.42
2022-12-27T14:41:31.432Z,63.66
2022-12-27T14:45:08.186Z,63.09
2022-12-27T14:48:41.660Z,62.14
2022-12-27T14:52:25.600Z,63.70
2022-12-27T14:55:40.710Z,63.39
2022-12-27T14:59:04.919Z,63.88
2022-12-27T15:02:27.651Z,65.08
2022-12-27T15:09:13.376Z,64.57
2022-12-27T15:12:27.983Z,64.41
2022-12-27T15:15:47.006Z,64.67
2022-12-27T15:19:18.176Z,64.80
2022-12-27T15:22:30.303Z,65.75
2022-12-27T15:25:48.700Z,66.36
2022-12-27T15:29:08.839Z,66.08
2022-12-27T15:32:24.824Z,66.36
2022-12-27T15:35:41.437Z,66.61
2022-12-27T15:38:54.008Z,67.23
2022-12-27T15:42:09.744Z,67.22
2022-12-27T15:45:30.304Z,67.69
2022-12-27T15:49:08.580Z,67.64
2022-12-27T15:52:20.703Z,67.59
2022-12-27T15:59:54.177Z,67.08
2022-12-27T16:03:00.026Z,68.16
2022-12-27T16:06:05.482Z,68.23
2022-12-27T16:09:36.674Z,68.54
2022-12-27T16:12:44.024Z,68.98
2022-12-27T16:15:55.155Z,69.05
2022-12-27T16:19:13.926Z,68.73
2022-12-27T16:22:27.556Z,69.29
2022-12-27T16:25:34.683Z,69.39
2022-12-27T16:28:45.136Z,70.03
2022-12-27T16:31:50.956Z,70.05
2022-12-27T16:34:59.021Z,69.56
2022-12-27T16:38:04.486Z,69.87
2022-12-27T16:41:17.059Z,70.42
2022-12-27T16:44:36.249Z,70.51
2022-12-27T16:48:18.614Z,70.23
2022-12-27T16:51:33.014Z,70.44
2022-12-27T16:54:50.797Z,71.91
2022-12-27T16:58:14.267Z,71.39
2022-12-27T17:01:57.121Z,71.66
2022-12-27T17:05:01.466Z,70.92
2022-12-27T17:08:17.893Z,71.39
2022-12-27T17:11:27.007Z,71.88
2022-12-27T17:14:37.015Z,71.02
2022-12-27T17:17:40.087Z,71.24
2022-12-27T17:20:46.468Z,71.66
2022-12-27T17:23:54.584Z,71.65
2022-12-27T17:27:12.809Z,72.77
2022-12-27T17:30:24.731Z,73.14
2022-12-27T17:33:41.157Z,72.54
2022-12-27T17:36:57.326Z,72.04
2022-12-27T17:40:22.000Z,72.60
2022-12-27T17:43:54.075Z,72.38
2022-12-27T17:50:41.557Z,73.37
2022-12-27T17:54:07.399Z,73.30
2022-12-27T17:57:32.757Z,73.45
2022-12-27T18:00:39.242Z,73.76
2022-12-27T18:03:47.212Z,72.67
2022-12-27T18:06:50.755Z,72.68
2022-12-27T18:09:57.952Z,72.95
2022-12-27T18:13:06.830Z,73.42
2022-12-27T18:16:17.769Z,72.68
2022-12-27T18:19:22.665Z,73.57
2022-12-27T18:22:25.853Z,73.43
2022-12-27T18:25:32.378Z,73.73
2022-12-27T18:28:37.845Z,72.73
2022-12-27T18:31:49.500Z,72.63
2022-12-27T18:34:57.645Z,72.16
2022-12-27T18:38:01.740Z,72.83
2022-12-27T18:41:08.437Z,73.11
2022-12-27T18:44:26.541Z,72.63
2022-12-27T18:47:30.205Z,73.50
2022-12-27T18:50:36.641Z,72.58
2022-12-27T18:53:40.565Z,73.54
2022-12-27T18:56:45.285Z,73.40
2022-12-27T19:00:01.840Z,73.00
2022-12-27T19:03:16.532Z,72.86
2022-12-27T19:06:20.683Z,73.32
2022-12-27T19:09:26.432Z,73.20
2022-12-27T19:12:35.306Z,73.20
2022-12-27T19:15:44.735Z,73.36
2022-12-27T19:18:52.218Z,72.35
2022-12-27T19:21:56.596Z,72.94
2022-12-27T19:25:01.478Z,73.16
2022-12-27T19:28:08.560Z,72.15
2022-12-27T19:31:19.417Z,72.69
2022-12-27T19:34:24.627Z,73.41
2022-12-27T19:37:29.020Z,73.11
2022-12-27T19:43:55.659Z,73.06
2022-12-27T19:46:59.713Z,73.20
2022-12-27T19:50:03.695Z,72.64
2022-12-27T19:53:06.480Z,72.76
2022-12-27T19:56:11.405Z,73.09
2022-12-27T19:59:17.052Z,73.21
2022-12-27T20:02:23.523Z,72.77
2022-12-27T20:06:13.724Z,72.82
2022-12-27T20:08:53.067Z,73.30
2022-12-27T20:11:57.059Z,72.85
2022-12-27T20:15:01.046Z,72.79
2022-12-27T20:18:05.473Z,73.04
2022-12-27T20:24:31.521Z,73.20
2022-12-27T20:27:35.324Z,73.18
2022-12-27T20:30:39.683Z,72.78
2022-12-27T20:33:44.980Z,72.88
2022-12-27T20:36:48.721Z,73.19
2022-12-27T20:39:52.027Z,72.69
2022-12-27T20:42:56.960Z,72.67
2022-12-27T20:46:06.240Z,72.65
2022-12-27T20:49:10.382Z,72.98
2022-12-27T20:52:14.156Z,72.96
2022-12-27T20:55:16.867Z,72.63
2022-12-27T20:58:20.698Z,71.87
2022-12-27T21:01:26.817Z,71.84
2022-12-27T21:04:32.139Z,72.45
2022-12-27T21:07:35.971Z,72.32
2022-12-27T21:10:38.671Z,71.95
2022-12-27T21:13:44.096Z,72.58
2022-12-27T21:16:47.909Z,72.52
2022-12-27T21:19:52.096Z,72.77
2022-12-27T21:22:55.854Z,72.17
2022-12-27T21:26:04.875Z,72.78
2022-12-27T21:29:09.320Z,73.13
2022-12-27T21:32:13.183Z,72.39
2022-12-27T21:35:17.415Z,72.82
2022-12-27T21:38:21.276Z,73.37
2022-12-27T21:41:27.079Z,73.43
2022-12-27T21:44:30.950Z,73.31
2022-12-27T21:47:34.711Z,73.67
2022-12-27T21:50:38.966Z,73.04
2022-12-27T21:53:43.127Z,72.96
2022-12-27T21:56:45.857Z,72.88
2022-12-27T21:59:49.907Z,72.80
2022-12-27T22:02:53.891Z,73.13
2022-12-27T22:05:58.136Z,72.21
2022-12-27T22:09:03.337Z,73.07
2022-12-27T22:12:06.454Z,72.84
2022-12-27T22:15:11.286Z,72.58
2022-12-27T22:18:15.061Z,73.02
2022-12-27T22:21:22.482Z,73.22
2022-12-27T22:24:26.340Z,73.16
2022-12-27T22:27:29.001Z,72.99
2022-12-27T22:30:32.718Z,73.02
2022-12-27T22:33:37.390Z,72.69
2022-12-27T22:36:41.727Z,72.40
2022-12-27T22:39:45.482Z,72.48
2022-12-27T22:42:49.235Z,72.51
2022-12-27T22:45:53.936Z,71.94
2022-12-27T22:48:59.449Z,73.04
2022-12-27T22:52:03.521Z,73.32
2022-12-27T22:55:08.545Z,73.31
2022-12-27T22:58:11.250Z,73.15
2022-12-27T23:01:16.496Z,73.74
2022-12-27T23:04:20.392Z,73.13
2022-12-27T23:08:05.020Z,72.20
2022-12-27T23:10:48.385Z,72.21
2022-12-27T23:13:57.731Z,72.51
2022-12-27T23:17:01.604Z,73.18
2022-12-27T23:23:28.576Z,73.46
2022-12-27T23:26:32.371Z,73.80
2022-12-27T23:29:36.168Z,73.79
2022-12-27T23:32:39.067Z,72.89
2022-12-27T23:35:42.851Z,73.94
2022-12-27T23:38:47.226Z,73.64
2022-12-27T23:41:49.977Z,73.15
2022-12-27T23:44:53.931Z,73.15
2022-12-27T23:47:56.680Z,72.89
2022-12-27T23:51:00.606Z,73.07
2022-12-27T23:54:04.821Z,72.72
2022-12-27T23:57:22.296Z,72.96
